sensor_id;sensor_type;location;lat;lon;timestamp;P1;durP1;ratioP1;P2;durP2;ratioP2
67816;SDS011;54614;47.576;7.524;2023-07-08T00:01:16;2.92;;;2.30;;
67816;SDS011;54614;47.576;7.524;2023-07-08T00:03:44;4.03;;;2.47;;
67816;SDS011;54614;47.576;7.524;2023-07-08T00:06:14;3.17;;;2.50;;
67816;SDS011;54614;47.576;7.524;2023-07-08T00:08:50;3.00;;;2.47;;
67816;SDS011;54614;47.576;7.524;2023-07-08T00:11:16;3.35;;;2.38;;
67816;SDS011;54614;47.576;7.524;2023-07-08T00:13:43;2.42;;;2.22;;
67816;SDS011;54614;47.576;7.524;2023-07-08T00:16:10;3.38;;;2.30;;
67816;SDS011;54614;47.576;7.524;2023-07-08T00:18:38;2.67;;;2.33;;
67816;SDS011;54614;47.576;7.524;2023-07-08T00:21:08;2.30;;;2.10;;
67816;SDS011;54614;47.576;7.524;2023-07-08T00:23:49;2.55;;;2.22;;
67816;SDS011;54614;47.576;7.524;2023-07-08T00:26:26;2.58;;;2.30;;
67816;SDS011;54614;47.576;7.524;2023-07-08T00:28:55;3.00;;;2.25;;
67816;SDS011;54614;47.576;7.524;2023-07-08T00:31:22;2.60;;;2.40;;
67816;SDS011;54614;47.576;7.524;2023-07-08T00:33:50;3.55;;;2.55;;
67816;SDS011;54614;47.576;7.524;2023-07-08T00:36:20;2.83;;;2.38;;
67816;SDS011;54614;47.576;7.524;2023-07-08T00:38:49;3.10;;;2.28;;
67816;SDS011;54614;47.576;7.524;2023-07-08T00:41:35;3.78;;;2.60;;
67816;SDS011;54614;47.576;7.524;2023-07-08T00:44:05;2.85;;;2.47;;
67816;SDS011;54614;47.576;7.524;2023-07-08T00:46:37;2.55;;;2.33;;
67816;SDS011;54614;47.576;7.524;2023-07-08T00:49:32;2.70;;;2.40;;
67816;SDS011;54614;47.576;7.524;2023-07-08T00:52:18;2.78;;;2.28;;
67816;SDS011;54614;47.576;7.524;2023-07-08T00:54:46;2.67;;;2.33;;
67816;SDS011;54614;47.576;7.524;2023-07-08T00:57:15;3.40;;;2.60;;
67816;SDS011;54614;47.576;7.524;2023-07-08T00:59:44;3.13;;;2.50;;
67816;SDS011;54614;47.576;7.524;2023-07-08T01:02:26;2.72;;;2.22;;
67816;SDS011;54614;47.576;7.524;2023-07-08T01:04:56;2.63;;;2.17;;
67816;SDS011;54614;47.576;7.524;2023-07-08T01:07:36;5.80;;;2.53;;
67816;SDS011;54614;47.576;7.524;2023-07-08T01:10:09;2.33;;;2.13;;
67816;SDS011;54614;47.576;7.524;2023-07-08T01:12:48;2.67;;;2.35;;
67816;SDS011;54614;47.576;7.524;2023-07-08T01:15:23;3.17;;;2.42;;
67816;SDS011;54614;47.576;7.524;2023-07-08T01:17:58;3.35;;;2.30;;
67816;SDS011;54614;47.576;7.524;2023-07-08T01:20:24;3.60;;;2.25;;
67816;SDS011;54614;47.576;7.524;2023-07-08T01:22:50;3.10;;;2.33;;
67816;SDS011;54614;47.576;7.524;2023-07-08T01:25:16;2.58;;;2.30;;
67816;SDS011;54614;47.576;7.524;2023-07-08T01:27:45;3.00;;;2.50;;
67816;SDS011;54614;47.576;7.524;2023-07-08T01:30:17;5.78;;;2.60;;
67816;SDS011;54614;47.576;7.524;2023-07-08T01:32:50;2.55;;;2.33;;
67816;SDS011;54614;47.576;7.524;2023-07-08T01:35:32;3.45;;;2.40;;
67816;SDS011;54614;47.576;7.524;2023-07-08T01:38:00;3.05;;;2.38;;
67816;SDS011;54614;47.576;7.524;2023-07-08T01:40:31;3.10;;;2.28;;
67816;SDS011;54614;47.576;7.524;2023-07-08T01:43:01;3.45;;;2.60;;
67816;SDS011;54614;47.576;7.524;2023-07-08T01:45:35;3.22;;;2.30;;
67816;SDS011;54614;47.576;7.524;2023-07-08T01:48:07;2.88;;;2.33;;
67816;SDS011;54614;47.576;7.524;2023-07-08T01:50:37;2.75;;;2.38;;
67816;SDS011;54614;47.576;7.524;2023-07-08T01:53:16;3.15;;;2.20;;
67816;SDS011;54614;47.576;7.524;2023-07-08T01:55:47;3.03;;;2.25;;
67816;SDS011;54614;47.576;7.524;2023-07-08T01:58:13;3.63;;;2.58;;
67816;SDS011;54614;47.576;7.524;2023-07-08T02:00:39;3.15;;;2.47;;
67816;SDS011;54614;47.576;7.524;2023-07-08T02:03:04;2.40;;;2.20;;
67816;SDS011;54614;47.576;7.524;2023-07-08T02:05:30;2.88;;;2.38;;
67816;SDS011;54614;47.576;7.524;2023-07-08T02:07:56;4.07;;;2.50;;
67816;SDS011;54614;47.576;7.524;2023-07-08T02:10:22;3.78;;;2.40;;
67816;SDS011;54614;47.576;7.524;2023-07-08T02:12:48;2.90;;;2.25;;
67816;SDS011;54614;47.576;7.524;2023-07-08T02:15:13;2.75;;;2.45;;
67816;SDS011;54614;47.576;7.524;2023-07-08T02:17:39;2.97;;;2.35;;
67816;SDS011;54614;47.576;7.524;2023-07-08T02:20:05;4.53;;;2.38;;
67816;SDS011;54614;47.576;7.524;2023-07-08T02:22:33;4.13;;;2.45;;
67816;SDS011;54614;47.576;7.524;2023-07-08T02:24:59;2.60;;;2.40;;
67816;SDS011;54614;47.576;7.524;2023-07-08T02:27:24;3.17;;;2.40;;
67816;SDS011;54614;47.576;7.524;2023-07-08T02:29:50;2.65;;;2.30;;
67816;SDS011;54614;47.576;7.524;2023-07-08T02:32:16;2.95;;;2.30;;
67816;SDS011;54614;47.576;7.524;2023-07-08T02:34:42;2.80;;;2.30;;
67816;SDS011;54614;47.576;7.524;2023-07-08T02:37:08;3.25;;;2.22;;
67816;SDS011;54614;47.576;7.524;2023-07-08T02:39:34;2.65;;;2.40;;
67816;SDS011;54614;47.576;7.524;2023-07-08T02:42:00;2.90;;;2.47;;
67816;SDS011;54614;47.576;7.524;2023-07-08T02:44:26;2.65;;;2.38;;
67816;SDS011;54614;47.576;7.524;2023-07-08T02:46:51;2.72;;;2.30;;
67816;SDS011;54614;47.576;7.524;2023-07-08T02:49:17;2.58;;;2.28;;
67816;SDS011;54614;47.576;7.524;2023-07-08T02:51:43;2.40;;;2.20;;
67816;SDS011;54614;47.576;7.524;2023-07-08T02:54:09;2.90;;;2.30;;
67816;SDS011;54614;47.576;7.524;2023-07-08T02:56:35;2.40;;;2.20;;
67816;SDS011;54614;47.576;7.524;2023-07-08T02:59:00;2.90;;;2.10;;
67816;SDS011;54614;47.576;7.524;2023-07-08T03:01:26;3.22;;;2.22;;
67816;SDS011;54614;47.576;7.524;2023-07-08T03:03:52;2.38;;;2.17;;
67816;SDS011;54614;47.576;7.524;2023-07-08T03:06:25;3.47;;;2.20;;
67816;SDS011;54614;47.576;7.524;2023-07-08T03:08:51;3.28;;;2.30;;
67816;SDS011;54614;47.576;7.524;2023-07-08T03:11:17;2.60;;;2.30;;
67816;SDS011;54614;47.576;7.524;2023-07-08T03:13:43;2.63;;;2.33;;
67816;SDS011;54614;47.576;7.524;2023-07-08T03:16:08;2.47;;;2.28;;
67816;SDS011;54614;47.576;7.524;2023-07-08T03:18:40;3.80;;;2.20;;
67816;SDS011;54614;47.576;7.524;2023-07-08T03:21:11;2.42;;;2.22;;
67816;SDS011;54614;47.576;7.524;2023-07-08T03:23:40;2.80;;;2.20;;
67816;SDS011;54614;47.576;7.524;2023-07-08T03:26:06;3.58;;;2.35;;
67816;SDS011;54614;47.576;7.524;2023-07-08T03:28:32;2.30;;;2.10;;
67816;SDS011;54614;47.576;7.524;2023-07-08T03:30:57;2.83;;;2.10;;
67816;SDS011;54614;47.576;7.524;2023-07-08T03:33:23;2.42;;;2.13;;
67816;SDS011;54614;47.576;7.524;2023-07-08T03:35:49;4.22;;;2.22;;
67816;SDS011;54614;47.576;7.524;2023-07-08T03:38:15;2.20;;;2.00;;
67816;SDS011;54614;47.576;7.524;2023-07-08T03:40:41;3.08;;;2.35;;
67816;SDS011;54614;47.576;7.524;2023-07-08T03:43:07;2.30;;;2.03;;
67816;SDS011;54614;47.576;7.524;2023-07-08T03:45:33;2.70;;;2.17;;
67816;SDS011;54614;47.576;7.524;2023-07-08T03:47:59;2.80;;;2.13;;
67816;SDS011;54614;47.576;7.524;2023-07-08T03:50:25;2.40;;;2.20;;
67816;SDS011;54614;47.576;7.524;2023-07-08T03:52:52;2.53;;;2.33;;
67816;SDS011;54614;47.576;7.524;2023-07-08T03:55:19;4.53;;;2.20;;
67816;SDS011;54614;47.576;7.524;2023-07-08T03:57:46;3.08;;;2.30;;
67816;SDS011;54614;47.576;7.524;2023-07-08T04:00:12;2.40;;;2.15;;
67816;SDS011;54614;47.576;7.524;2023-07-08T04:02:39;3.08;;;2.55;;
67816;SDS011;54614;47.576;7.524;2023-07-08T04:05:09;2.58;;;2.10;;
67816;SDS011;54614;47.576;7.524;2023-07-08T04:07:43;3.50;;;2.08;;
67816;SDS011;54614;47.576;7.524;2023-07-08T04:10:09;3.80;;;2.22;;
67816;SDS011;54614;47.576;7.524;2023-07-08T04:12:36;3.15;;;2.28;;
67816;SDS011;54614;47.576;7.524;2023-07-08T04:15:03;2.30;;;2.10;;
67816;SDS011;54614;47.576;7.524;2023-07-08T04:17:29;2.67;;;2.10;;
67816;SDS011;54614;47.576;7.524;2023-07-08T04:19:55;3.33;;;2.20;;
67816;SDS011;54614;47.576;7.524;2023-07-08T04:22:22;2.15;;;1.88;;
67816;SDS011;54614;47.576;7.524;2023-07-08T04:24:49;2.72;;;2.10;;
67816;SDS011;54614;47.576;7.524;2023-07-08T04:27:15;3.47;;;2.30;;
67816;SDS011;54614;47.576;7.524;2023-07-08T04:29:44;2.10;;;1.90;;
67816;SDS011;54614;47.576;7.524;2023-07-08T04:32:10;2.58;;;2.00;;
67816;SDS011;54614;47.576;7.524;2023-07-08T04:34:36;2.38;;;2.10;;
67816;SDS011;54614;47.576;7.524;2023-07-08T04:37:01;2.10;;;1.90;;
67816;SDS011;54614;47.576;7.524;2023-07-08T04:39:29;3.47;;;2.10;;
67816;SDS011;54614;47.576;7.524;2023-07-08T04:41:56;2.55;;;2.30;;
67816;SDS011;54614;47.576;7.524;2023-07-08T04:44:22;2.20;;;2.00;;
67816;SDS011;54614;47.576;7.524;2023-07-08T04:46:50;2.33;;;2.10;;
67816;SDS011;54614;47.576;7.524;2023-07-08T04:49:21;2.13;;;1.92;;
67816;SDS011;54614;47.576;7.524;2023-07-08T04:51:48;2.38;;;2.00;;
67816;SDS011;54614;47.576;7.524;2023-07-08T04:54:15;2.38;;;2.13;;
67816;SDS011;54614;47.576;7.524;2023-07-08T04:56:42;2.20;;;2.00;;
67816;SDS011;54614;47.576;7.524;2023-07-08T04:59:12;2.85;;;2.15;;
67816;SDS011;54614;47.576;7.524;2023-07-08T05:01:42;2.38;;;2.00;;
67816;SDS011;54614;47.576;7.524;2023-07-08T05:04:15;2.30;;;2.10;;
67816;SDS011;54614;47.576;7.524;2023-07-08T05:06:43;2.20;;;2.00;;
67816;SDS011;54614;47.576;7.524;2023-07-08T05:09:09;3.42;;;2.28;;
67816;SDS011;54614;47.576;7.524;2023-07-08T05:11:35;3.00;;;2.05;;
67816;SDS011;54614;47.576;7.524;2023-07-08T05:14:02;4.45;;;2.10;;
67816;SDS011;54614;47.576;7.524;2023-07-08T05:16:34;8.70;;;2.50;;
67816;SDS011;54614;47.576;7.524;2023-07-08T05:19:03;3.38;;;2.50;;
67816;SDS011;54614;47.576;7.524;2023-07-08T05:21:29;7.43;;;3.25;;
67816;SDS011;54614;47.576;7.524;2023-07-08T05:23:59;8.68;;;3.85;;
67816;SDS011;54614;47.576;7.524;2023-07-08T05:26:30;6.18;;;3.80;;
67816;SDS011;54614;47.576;7.524;2023-07-08T05:28:57;10.90;;;4.65;;
67816;SDS011;54614;47.576;7.524;2023-07-08T05:31:23;6.65;;;4.07;;
67816;SDS011;54614;47.576;7.524;2023-07-08T05:33:49;10.07;;;4.13;;
67816;SDS011;54614;47.576;7.524;2023-07-08T05:36:15;9.20;;;4.20;;
67816;SDS011;54614;47.576;7.524;2023-07-08T05:38:40;8.63;;;3.92;;
67816;SDS011;54614;47.576;7.524;2023-07-08T05:41:06;7.68;;;4.00;;
67816;SDS011;54614;47.576;7.524;2023-07-08T05:43:32;9.02;;;4.32;;
67816;SDS011;54614;47.576;7.524;2023-07-08T05:45:58;8.80;;;4.20;;
67816;SDS011;54614;47.576;7.524;2023-07-08T05:48:26;7.97;;;4.10;;
67816;SDS011;54614;47.576;7.524;2023-07-08T05:50:52;7.72;;;4.68;;
67816;SDS011;54614;47.576;7.524;2023-07-08T05:53:18;13.93;;;4.00;;
67816;SDS011;54614;47.576;7.524;2023-07-08T05:55:45;10.10;;;4.05;;
67816;SDS011;54614;47.576;7.524;2023-07-08T05:58:13;8.38;;;3.97;;
67816;SDS011;54614;47.576;7.524;2023-07-08T06:00:42;7.15;;;3.85;;
67816;SDS011;54614;47.576;7.524;2023-07-08T06:03:09;8.30;;;4.35;;
67816;SDS011;54614;47.576;7.524;2023-07-08T06:05:38;8.57;;;4.40;;
67816;SDS011;54614;47.576;7.524;2023-07-08T06:08:05;10.73;;;4.45;;
67816;SDS011;54614;47.576;7.524;2023-07-08T06:10:32;8.80;;;4.18;;
67816;SDS011;54614;47.576;7.524;2023-07-08T06:12:59;6.95;;;4.22;;
67816;SDS011;54614;47.576;7.524;2023-07-08T06:15:24;9.43;;;4.20;;
67816;SDS011;54614;47.576;7.524;2023-07-08T06:17:50;7.22;;;4.00;;
67816;SDS011;54614;47.576;7.524;2023-07-08T06:20:16;9.20;;;4.45;;
67816;SDS011;54614;47.576;7.524;2023-07-08T06:22:42;9.00;;;4.10;;
67816;SDS011;54614;47.576;7.524;2023-07-08T06:25:07;10.90;;;4.20;;
67816;SDS011;54614;47.576;7.524;2023-07-08T06:27:33;7.15;;;4.20;;
67816;SDS011;54614;47.576;7.524;2023-07-08T06:29:59;10.35;;;3.83;;
67816;SDS011;54614;47.576;7.524;2023-07-08T06:32:25;10.23;;;4.22;;
67816;SDS011;54614;47.576;7.524;2023-07-08T06:34:50;7.60;;;3.63;;
67816;SDS011;54614;47.576;7.524;2023-07-08T06:37:16;6.35;;;4.00;;
67816;SDS011;54614;47.576;7.524;2023-07-08T06:39:42;6.80;;;3.72;;
67816;SDS011;54614;47.576;7.524;2023-07-08T06:42:08;8.55;;;3.75;;
67816;SDS011;54614;47.576;7.524;2023-07-08T06:44:33;8.27;;;3.55;;
67816;SDS011;54614;47.576;7.524;2023-07-08T06:46:59;7.97;;;3.58;;
67816;SDS011;54614;47.576;7.524;2023-07-08T06:49:25;8.13;;;3.50;;
67816;SDS011;54614;47.576;7.524;2023-07-08T06:51:51;6.25;;;3.70;;
67816;SDS011;54614;47.576;7.524;2023-07-08T06:54:18;6.43;;;3.22;;
67816;SDS011;54614;47.576;7.524;2023-07-08T06:56:43;5.30;;;3.08;;
67816;SDS011;54614;47.576;7.524;2023-07-08T06:59:09;5.03;;;3.27;;
67816;SDS011;54614;47.576;7.524;2023-07-08T07:01:35;6.83;;;3.07;;
67816;SDS011;54614;47.576;7.524;2023-07-08T07:04:04;5.38;;;3.13;;
67816;SDS011;54614;47.576;7.524;2023-07-08T07:06:30;5.30;;;3.00;;
67816;SDS011;54614;47.576;7.524;2023-07-08T07:08:55;5.15;;;3.15;;
67816;SDS011;54614;47.576;7.524;2023-07-08T07:11:21;7.18;;;3.20;;
67816;SDS011;54614;47.576;7.524;2023-07-08T07:13:47;7.90;;;3.22;;
67816;SDS011;54614;47.576;7.524;2023-07-08T07:16:13;10.07;;;3.17;;
67816;SDS011;54614;47.576;7.524;2023-07-08T07:18:39;7.50;;;3.03;;
67816;SDS011;54614;47.576;7.524;2023-07-08T07:21:04;5.10;;;2.70;;
67816;SDS011;54614;47.576;7.524;2023-07-08T07:23:30;6.72;;;2.80;;
67816;SDS011;54614;47.576;7.524;2023-07-08T07:25:56;3.45;;;2.50;;
67816;SDS011;54614;47.576;7.524;2023-07-08T07:28:22;4.85;;;2.70;;
67816;SDS011;54614;47.576;7.524;2023-07-08T07:30:54;6.90;;;2.55;;
67816;SDS011;54614;47.576;7.524;2023-07-08T07:33:25;3.58;;;2.83;;
67816;SDS011;54614;47.576;7.524;2023-07-08T07:35:51;3.80;;;2.58;;
67816;SDS011;54614;47.576;7.524;2023-07-08T07:38:18;5.88;;;2.40;;
67816;SDS011;54614;47.576;7.524;2023-07-08T07:40:44;4.68;;;2.47;;
67816;SDS011;54614;47.576;7.524;2023-07-08T07:43:10;3.10;;;2.33;;
67816;SDS011;54614;47.576;7.524;2023-07-08T07:45:36;3.45;;;2.50;;
67816;SDS011;54614;47.576;7.524;2023-07-08T07:48:02;4.32;;;2.22;;
67816;SDS011;54614;47.576;7.524;2023-07-08T07:50:29;6.63;;;2.25;;
67816;SDS011;54614;47.576;7.524;2023-07-08T07:52:56;5.93;;;2.50;;
67816;SDS011;54614;47.576;7.524;2023-07-08T07:55:22;5.38;;;2.40;;
67816;SDS011;54614;47.576;7.524;2023-07-08T07:57:48;2.75;;;2.40;;
67816;SDS011;54614;47.576;7.524;2023-07-08T08:00:14;9.73;;;2.45;;
67816;SDS011;54614;47.576;7.524;2023-07-08T08:02:40;5.93;;;2.10;;
67816;SDS011;54614;47.576;7.524;2023-07-08T08:05:06;7.80;;;2.28;;
67816;SDS011;54614;47.576;7.524;2023-07-08T08:07:33;8.10;;;2.67;;
67816;SDS011;54614;47.576;7.524;2023-07-08T08:10:01;6.85;;;2.28;;
67816;SDS011;54614;47.576;7.524;2023-07-08T08:12:27;15.95;;;2.90;;
67816;SDS011;54614;47.576;7.524;2023-07-08T08:14:54;8.10;;;2.42;;
67816;SDS011;54614;47.576;7.524;2023-07-08T08:17:20;5.82;;;2.20;;
67816;SDS011;54614;47.576;7.524;2023-07-08T08:19:46;8.93;;;2.47;;
67816;SDS011;54614;47.576;7.524;2023-07-08T08:22:11;7.82;;;2.45;;
67816;SDS011;54614;47.576;7.524;2023-07-08T08:24:37;9.60;;;2.63;;
67816;SDS011;54614;47.576;7.524;2023-07-08T08:27:03;7.05;;;2.50;;
67816;SDS011;54614;47.576;7.524;2023-07-08T08:29:30;9.68;;;2.50;;
67816;SDS011;54614;47.576;7.524;2023-07-08T08:31:55;10.32;;;2.40;;
67816;SDS011;54614;47.576;7.524;2023-07-08T08:34:24;5.82;;;2.70;;
67816;SDS011;54614;47.576;7.524;2023-07-08T08:36:50;5.85;;;2.50;;
67816;SDS011;54614;47.576;7.524;2023-07-08T08:39:20;20.33;;;3.30;;
67816;SDS011;54614;47.576;7.524;2023-07-08T08:41:46;12.93;;;2.80;;
67816;SDS011;54614;47.576;7.524;2023-07-08T08:44:19;8.25;;;2.20;;
67816;SDS011;54614;47.576;7.524;2023-07-08T08:47:19;11.98;;;2.78;;
67816;SDS011;54614;47.576;7.524;2023-07-08T08:50:39;7.70;;;2.33;;
67816;SDS011;54614;47.576;7.524;2023-07-08T08:53:16;5.88;;;2.47;;
67816;SDS011;54614;47.576;7.524;2023-07-08T08:55:46;6.05;;;1.98;;
67816;SDS011;54614;47.576;7.524;2023-07-08T09:01:19;4.90;;;2.20;;
67816;SDS011;54614;47.576;7.524;2023-07-08T09:06:24;4.20;;;2.30;;
67816;SDS011;54614;47.576;7.524;2023-07-08T09:08:57;5.97;;;2.10;;
67816;SDS011;54614;47.576;7.524;2023-07-08T09:14:33;8.73;;;2.10;;
67816;SDS011;54614;47.576;7.524;2023-07-08T09:22:31;3.53;;;2.25;;
67816;SDS011;54614;47.576;7.524;2023-07-08T09:28:00;5.22;;;2.17;;
67816;SDS011;54614;47.576;7.524;2023-07-08T09:30:27;5.72;;;2.22;;
67816;SDS011;54614;47.576;7.524;2023-07-08T09:32:55;10.48;;;2.53;;
67816;SDS011;54614;47.576;7.524;2023-07-08T09:35:26;7.03;;;2.17;;
67816;SDS011;54614;47.576;7.524;2023-07-08T09:38:06;8.93;;;2.42;;
67816;SDS011;54614;47.576;7.524;2023-07-08T09:40:37;5.57;;;2.25;;
67816;SDS011;54614;47.576;7.524;2023-07-08T09:43:11;8.75;;;2.03;;
67816;SDS011;54614;47.576;7.524;2023-07-08T09:46:02;4.60;;;2.30;;
67816;SDS011;54614;47.576;7.524;2023-07-08T09:48:35;6.03;;;2.17;;
67816;SDS011;54614;47.576;7.524;2023-07-08T09:51:02;8.43;;;2.47;;
67816;SDS011;54614;47.576;7.524;2023-07-08T09:53:29;4.68;;;2.10;;
67816;SDS011;54614;47.576;7.524;2023-07-08T09:55:59;6.68;;;2.00;;
67816;SDS011;54614;47.576;7.524;2023-07-08T09:58:33;6.40;;;2.10;;
67816;SDS011;54614;47.576;7.524;2023-07-08T10:01:08;11.07;;;5.85;;
67816;SDS011;54614;47.576;7.524;2023-07-08T10:03:43;8.75;;;3.72;;
67816;SDS011;54614;47.576;7.524;2023-07-08T10:06:24;11.35;;;5.47;;
67816;SDS011;54614;47.576;7.524;2023-07-08T10:08:53;5.45;;;3.40;;
67816;SDS011;54614;47.576;7.524;2023-07-08T10:11:35;7.07;;;3.35;;
67816;SDS011;54614;47.576;7.524;2023-07-08T10:14:12;10.95;;;5.90;;
67816;SDS011;54614;47.576;7.524;2023-07-08T10:17:04;35.67;;;19.52;;
67816;SDS011;54614;47.576;7.524;2023-07-08T10:19:30;16.08;;;10.23;;
67816;SDS011;54614;47.576;7.524;2023-07-08T10:27:39;21.83;;;11.43;;
67816;SDS011;54614;47.576;7.524;2023-07-08T10:36:21;20.10;;;10.30;;
67816;SDS011;54614;47.576;7.524;2023-07-08T10:39:05;17.65;;;10.00;;
67816;SDS011;54614;47.576;7.524;2023-07-08T10:44:37;27.58;;;10.05;;
67816;SDS011;54614;47.576;7.524;2023-07-08T10:47:39;20.25;;;9.45;;
67816;SDS011;54614;47.576;7.524;2023-07-08T10:56:40;16.23;;;9.80;;
67816;SDS011;54614;47.576;7.524;2023-07-08T11:07:47;21.00;;;10.75;;
67816;SDS011;54614;47.576;7.524;2023-07-08T11:10:30;25.42;;;11.70;;
67816;SDS011;54614;47.576;7.524;2023-07-08T11:13:06;19.42;;;10.90;;
67816;SDS011;54614;47.576;7.524;2023-07-08T11:18:53;23.50;;;10.52;;
67816;SDS011;54614;47.576;7.524;2023-07-08T11:21:47;20.20;;;11.02;;
67816;SDS011;54614;47.576;7.524;2023-07-08T11:24:22;18.52;;;11.07;;
67816;SDS011;54614;47.576;7.524;2023-07-08T11:32:26;23.35;;;10.73;;
67816;SDS011;54614;47.576;7.524;2023-07-08T11:34:56;17.67;;;10.85;;
67816;SDS011;54614;47.576;7.524;2023-07-08T11:37:26;23.73;;;10.88;;
67816;SDS011;54614;47.576;7.524;2023-07-08T11:39:57;20.23;;;10.68;;
67816;SDS011;54614;47.576;7.524;2023-07-08T11:42:40;17.33;;;11.00;;
67816;SDS011;54614;47.576;7.524;2023-07-08T11:45:53;22.33;;;11.05;;
67816;SDS011;54614;47.576;7.524;2023-07-08T11:48:04;16.52;;;10.55;;
67816;SDS011;54614;47.576;7.524;2023-07-08T11:50:53;17.00;;;10.27;;
67816;SDS011;54614;47.576;7.524;2023-07-08T11:55:55;20.67;;;10.40;;
67816;SDS011;54614;47.576;7.524;2023-07-08T11:58:27;26.00;;;11.35;;
67816;SDS011;54614;47.576;7.524;2023-07-08T12:03:34;20.17;;;10.85;;
67816;SDS011;54614;47.576;7.524;2023-07-08T12:08:52;19.75;;;10.23;;
67816;SDS011;54614;47.576;7.524;2023-07-08T12:11:23;20.30;;;10.27;;
67816;SDS011;54614;47.576;7.524;2023-07-08T12:14:01;16.58;;;9.68;;
67816;SDS011;54614;47.576;7.524;2023-07-08T12:16:29;17.38;;;9.98;;
67816;SDS011;54614;47.576;7.524;2023-07-08T12:18:59;19.52;;;10.57;;
67816;SDS011;54614;47.576;7.524;2023-07-08T12:21:35;19.80;;;9.80;;
67816;SDS011;54614;47.576;7.524;2023-07-08T12:24:05;19.40;;;9.77;;
67816;SDS011;54614;47.576;7.524;2023-07-08T12:26:32;17.70;;;9.60;;
67816;SDS011;54614;47.576;7.524;2023-07-08T12:28:58;17.10;;;9.60;;
67816;SDS011;54614;47.576;7.524;2023-07-08T12:31:24;17.67;;;10.02;;
67816;SDS011;54614;47.576;7.524;2023-07-08T12:33:51;16.95;;;9.60;;
67816;SDS011;54614;47.576;7.524;2023-07-08T12:36:21;14.05;;;8.93;;
67816;SDS011;54614;47.576;7.524;2023-07-08T12:38:52;15.98;;;9.70;;
67816;SDS011;54614;47.576;7.524;2023-07-08T12:41:28;20.63;;;9.57;;
67816;SDS011;54614;47.576;7.524;2023-07-08T12:43:58;22.23;;;9.73;;
67816;SDS011;54614;47.576;7.524;2023-07-08T12:46:26;19.15;;;9.57;;
67816;SDS011;54614;47.576;7.524;2023-07-08T12:48:53;15.45;;;8.65;;
67816;SDS011;54614;47.576;7.524;2023-07-08T12:51:20;16.95;;;9.35;;
67816;SDS011;54614;47.576;7.524;2023-07-08T12:53:51;16.98;;;9.73;;
67816;SDS011;54614;47.576;7.524;2023-07-08T12:56:18;19.17;;;8.85;;
67816;SDS011;54614;47.576;7.524;2023-07-08T12:58:55;15.43;;;8.80;;
67816;SDS011;54614;47.576;7.524;2023-07-08T13:01:24;15.38;;;8.73;;
67816;SDS011;54614;47.576;7.524;2023-07-08T13:03:56;20.48;;;9.10;;
67816;SDS011;54614;47.576;7.524;2023-07-08T13:06:29;15.38;;;9.05;;
67816;SDS011;54614;47.576;7.524;2023-07-08T13:11:57;18.27;;;8.65;;
67816;SDS011;54614;47.576;7.524;2023-07-08T13:14:40;17.35;;;8.50;;
67816;SDS011;54614;47.576;7.524;2023-07-08T13:17:10;22.88;;;8.63;;
67816;SDS011;54614;47.576;7.524;2023-07-08T13:19:41;14.50;;;8.00;;
67816;SDS011;54614;47.576;7.524;2023-07-08T13:22:19;19.25;;;8.30;;
67816;SDS011;54614;47.576;7.524;2023-07-08T13:24:47;16.65;;;7.80;;
67816;SDS011;54614;47.576;7.524;2023-07-08T13:27:23;15.75;;;7.68;;
67816;SDS011;54614;47.576;7.524;2023-07-08T13:29:55;22.50;;;8.38;;
67816;SDS011;54614;47.576;7.524;2023-07-08T13:32:40;13.45;;;7.85;;
67816;SDS011;54614;47.576;7.524;2023-07-08T13:35:20;19.83;;;7.97;;
67816;SDS011;54614;47.576;7.524;2023-07-08T13:38:00;25.27;;;7.78;;
67816;SDS011;54614;47.576;7.524;2023-07-08T13:40:29;14.25;;;7.88;;
67816;SDS011;54614;47.576;7.524;2023-07-08T13:42:56;16.10;;;7.82;;
67816;SDS011;54614;47.576;7.524;2023-07-08T13:45:23;15.65;;;7.47;;
67816;SDS011;54614;47.576;7.524;2023-07-08T13:50:29;12.13;;;7.25;;
67816;SDS011;54614;47.576;7.524;2023-07-08T13:53:14;17.90;;;7.32;;
67816;SDS011;54614;47.576;7.524;2023-07-08T13:55:56;16.65;;;7.63;;
67816;SDS011;54614;47.576;7.524;2023-07-08T13:58:28;17.30;;;7.80;;
67816;SDS011;54614;47.576;7.524;2023-07-08T14:00:56;15.23;;;7.43;;
67816;SDS011;54614;47.576;7.524;2023-07-08T14:03:23;20.67;;;7.53;;
67816;SDS011;54614;47.576;7.524;2023-07-08T14:05:50;11.82;;;7.28;;
67816;SDS011;54614;47.576;7.524;2023-07-08T14:08:16;15.18;;;7.38;;
67816;SDS011;54614;47.576;7.524;2023-07-08T14:10:43;16.20;;;7.43;;
67816;SDS011;54614;47.576;7.524;2023-07-08T14:13:10;14.45;;;7.25;;
67816;SDS011;54614;47.576;7.524;2023-07-08T14:15:37;13.20;;;6.97;;
67816;SDS011;54614;47.576;7.524;2023-07-08T14:18:04;16.48;;;6.95;;
67816;SDS011;54614;47.576;7.524;2023-07-08T14:20:31;13.30;;;6.90;;
67816;SDS011;54614;47.576;7.524;2023-07-08T14:22:57;13.93;;;6.88;;
67816;SDS011;54614;47.576;7.524;2023-07-08T14:25:23;12.77;;;6.93;;
67816;SDS011;54614;47.576;7.524;2023-07-08T14:27:49;11.88;;;7.00;;
67816;SDS011;54614;47.576;7.524;2023-07-08T14:30:16;12.60;;;6.90;;
67816;SDS011;54614;47.576;7.524;2023-07-08T14:32:42;11.38;;;6.93;;
67816;SDS011;54614;47.576;7.524;2023-07-08T14:35:16;12.48;;;6.55;;
67816;SDS011;54614;47.576;7.524;2023-07-08T14:37:50;11.73;;;6.47;;
67816;SDS011;54614;47.576;7.524;2023-07-08T14:40:25;11.88;;;7.03;;
67816;SDS011;54614;47.576;7.524;2023-07-08T14:43:09;16.67;;;6.95;;
67816;SDS011;54614;47.576;7.524;2023-07-08T14:45:50;15.18;;;6.93;;
67816;SDS011;54614;47.576;7.524;2023-07-08T14:48:20;15.05;;;7.40;;
67816;SDS011;54614;47.576;7.524;2023-07-08T14:50:46;12.35;;;6.90;;
67816;SDS011;54614;47.576;7.524;2023-07-08T14:53:13;10.95;;;6.93;;
67816;SDS011;54614;47.576;7.524;2023-07-08T14:55:40;15.15;;;6.50;;
67816;SDS011;54614;47.576;7.524;2023-07-08T14:58:10;9.93;;;6.50;;
67816;SDS011;54614;47.576;7.524;2023-07-08T15:00:47;14.40;;;6.95;;
67816;SDS011;54614;47.576;7.524;2023-07-08T15:03:16;14.63;;;6.88;;
67816;SDS011;54614;47.576;7.524;2023-07-08T15:05:42;13.45;;;6.82;;
67816;SDS011;54614;47.576;7.524;2023-07-08T15:08:08;13.20;;;6.57;;
67816;SDS011;54614;47.576;7.524;2023-07-08T15:10:34;13.32;;;6.55;;
67816;SDS011;54614;47.576;7.524;2023-07-08T15:13:03;13.00;;;6.32;;
67816;SDS011;54614;47.576;7.524;2023-07-08T15:15:34;9.30;;;6.55;;
67816;SDS011;54614;47.576;7.524;2023-07-08T15:18:01;11.18;;;6.45;;
67816;SDS011;54614;47.576;7.524;2023-07-08T15:20:35;15.32;;;6.55;;
67816;SDS011;54614;47.576;7.524;2023-07-08T15:23:01;11.82;;;5.88;;
67816;SDS011;54614;47.576;7.524;2023-07-08T15:25:27;13.20;;;6.38;;
67816;SDS011;54614;47.576;7.524;2023-07-08T15:27:54;16.75;;;6.60;;
67816;SDS011;54614;47.576;7.524;2023-07-08T15:30:23;15.25;;;6.57;;
67816;SDS011;54614;47.576;7.524;2023-07-08T15:32:52;14.15;;;6.30;;
67816;SDS011;54614;47.576;7.524;2023-07-08T15:35:20;12.50;;;6.30;;
67816;SDS011;54614;47.576;7.524;2023-07-08T15:37:55;12.18;;;5.90;;
67816;SDS011;54614;47.576;7.524;2023-07-08T15:40:22;12.23;;;6.15;;
67816;SDS011;54614;47.576;7.524;2023-07-08T15:42:53;13.75;;;6.47;;
67816;SDS011;54614;47.576;7.524;2023-07-08T15:45:28;11.20;;;5.97;;
67816;SDS011;54614;47.576;7.524;2023-07-08T15:48:02;13.68;;;6.00;;
67816;SDS011;54614;47.576;7.524;2023-07-08T15:50:29;14.20;;;6.28;;
67816;SDS011;54614;47.576;7.524;2023-07-08T15:52:55;17.60;;;6.75;;
67816;SDS011;54614;47.576;7.524;2023-07-08T15:55:25;13.20;;;5.90;;
67816;SDS011;54614;47.576;7.524;2023-07-08T15:57:56;13.63;;;5.95;;
67816;SDS011;54614;47.576;7.524;2023-07-08T16:00:27;12.57;;;6.18;;
67816;SDS011;54614;47.576;7.524;2023-07-08T16:03:01;16.02;;;6.40;;
67816;SDS011;54614;47.576;7.524;2023-07-08T16:05:32;15.00;;;6.25;;